Aérodrome :
LOGIN :

S'inscrire | Disclaimer

   EN    FR    IT 

 










Légende :    VFR   VFR Marginal   IFR   IFR Intensif   IFR Très Intensif
Visi : 
Plafond : 
>= 8 km
>= 3000ft
5 à 8 km
1000 à 3000 ft
1500m à 5 km
500 à 1000 ft
800 à 1500m
200 à 500 ft
< 800m
< 200 ft
Symboles :   Orages  Brouillard  Fortes neiges  Fortes précipitations  Vent > 20 kt
SIGMETs :   Divers  Orages  Givrage  Turbulence  Onde Orograph.  Cendres Volcan.






- Altitude de l'aérodrome : 308 ft
- Code IATA : POZ


EPPO - Poznan-Lawica

DERNIER METAR :
  • 281330Z 20011KT 9999 FEW036 07/04 Q0993

METARs EXPIRÉS :
  • 281300Z 19011KT 9999 FEW011 07/04 Q0993
  • 281230Z 19012KT 9999 BKN011 06/04 Q0994
  • 281200Z 20011KT 9999 SCT008 BKN046 06/04 Q0994
  • 281130Z 19012KT 9999 BKN007 05/04 Q0994
  • 281100Z 19010KT 9999 -RA BKN007 OVC033 04/04 Q0995

TAF TAF EPPO
Valide du 28 à 12h jusqu'au 29 à 12h UTC


281130Z 2812/2912 16011KT 9999 OVC020
TEMPO 2812/2814 BKN007
BECMG 2815/2818 24015G25KT
TEMPO 2815/2912 24020G35KT 3500 SHRA BKN014CB
PROB30
TEMPO 2902/2906 2000 SHRASN BKN007 BKN012CB



MET'MAP, la Météo Aéronautique d'un coup d'oeil ! - Copyright ORBIFLY Décembre 2007 - Disclaimer

ORBIFLY MET'MAP TEAM :

Programmation & Développement : Alexandra Zaïnal
Sur une idée originale de : Baudouin d'Aumeries
Assistance à la programmation : Marc-Olivier Méhu
Soutien technique & logistique : Manuel Goepfert

Contact : metmap@orbifly.com




SOURCES & CREDITS :

   NOAA